Sidney Municipal-Lloyd W Carr Field
KSNY : now visible

Airfield :











YOU CAN JOIN US ON...

 
LOGIN :

Register | Disclaimer

   EN    FR    IT 

 









Legend :    VFR   Marginal VFR   IFR   Intensive IFR   Very Intensive IFR
Visi :
Ceiling :
>= 8 km
>= 3000ft
5 to 8 km
1000 to 3000 ft
1500m to 5 km
500 to 1000 ft
800 to 1500m
200 to 500 ft
< 800m
< 200 ft
Symbols :   Thunderstorms  Fog  Heavy snow  Heavy precipitations  Wind > 20 kt






- Airport Elevation : 4313 ft


KSNY - Sidney Municipal-Lloyd W Carr Field

CURRENT METAR :
  • 121853Z AUTO 22013KT 10SM OVC085 07/M04 A2995 RMK AO2 SLP151 T00721044

EXPIRED METARs :
  • 121753Z AUTO 21010KT 10SM OVC080 07/M04 A2999 RMK AO2 SLP160 T00671039 10067 21017 58001
  • 121653Z AUTO 22008KT 10SM FEW080 SCT100 06/M03 A3000 RMK AO2 SLP164 T00561033

TAF KSNY
Valid from the 12 at 18:00 until the 13 at 18:00 UTC


121736Z 1218/1318 21010KT P6SM BKN080
FM122000 24019G27KT P6SM SCT200
FM130600 28010KT P6SM SCT250 WS020/30045KT



MET'MAP, your aeronautical weather chart ! - Copyright ORBIFLY December 2007 - Disclaimer

ORBIFLY MET'MAP TEAM :

Programming & Development : Alexandra Zaïnal
Concept & original design : Baudouin d'Aumeries
Assistance for programming : Marc-Olivier Méhu
Technical & hardware support : Manuel Goepfert

Contact : metmap@orbifly.com




SOURCES & CREDITS :

   NOAA       Earth
Advisory